sensor_id;sensor_type;location;lat;lon;timestamp;temperature;humidity
69533;DHT22;56729;52.036;5.332;2022-09-09T00:00:37;15.40;98.10
69533;DHT22;56729;52.036;5.332;2022-09-09T00:03:26;15.30;98.10
69533;DHT22;56729;52.036;5.332;2022-09-09T00:04:33;15.20;98.30
69533;DHT22;56729;52.036;5.332;2022-09-09T00:07:58;15.20;98.60
69533;DHT22;56729;52.036;5.332;2022-09-09T00:09:12;15.20;98.70
69533;DHT22;56729;52.036;5.332;2022-09-09T00:10:29;15.20;98.80
69533;DHT22;56729;52.036;5.332;2022-09-09T00:11:58;15.20;98.70
69533;DHT22;56729;52.036;5.332;2022-09-09T00:14:33;15.20;98.70
69533;DHT22;56729;52.036;5.332;2022-09-09T00:15:49;15.20;98.70
69533;DHT22;56729;52.036;5.332;2022-09-09T00:17:01;15.20;98.60
69533;DHT22;56729;52.036;5.332;2022-09-09T00:20:04;15.20;98.60
69533;DHT22;56729;52.036;5.332;2022-09-09T00:21:12;15.10;98.40
69533;DHT22;56729;52.036;5.332;2022-09-09T00:22:24;15.10;98.60
69533;DHT22;56729;52.036;5.332;2022-09-09T00:23:32;15.10;98.50
69533;DHT22;56729;52.036;5.332;2022-09-09T00:24:43;15.10;98.60
69533;DHT22;56729;52.036;5.332;2022-09-09T00:26:05;15.10;98.60
69533;DHT22;56729;52.036;5.332;2022-09-09T00:28:26;15.00;98.50
69533;DHT22;56729;52.036;5.332;2022-09-09T00:29:36;15.00;98.50
69533;DHT22;56729;52.036;5.332;2022-09-09T00:30:43;15.00;98.40
69533;DHT22;56729;52.036;5.332;2022-09-09T00:31:45;15.00;98.40
69533;DHT22;56729;52.036;5.332;2022-09-09T00:32:58;15.00;98.50
69533;DHT22;56729;52.036;5.332;2022-09-09T00:34:13;15.00;98.60
69533;DHT22;56729;52.036;5.332;2022-09-09T00:36:23;15.00;98.50
69533;DHT22;56729;52.036;5.332;2022-09-09T00:37:30;14.90;98.40
69533;DHT22;56729;52.036;5.332;2022-09-09T00:38:36;14.90;98.40
69533;DHT22;56729;52.036;5.332;2022-09-09T00:39:42;14.90;98.50
69533;DHT22;56729;52.036;5.332;2022-09-09T00:40:55;14.90;98.60
69533;DHT22;56729;52.036;5.332;2022-09-09T00:43:25;14.90;98.80
69533;DHT22;56729;52.036;5.332;2022-09-09T00:44:30;14.90;98.90
69533;DHT22;56729;52.036;5.332;2022-09-09T00:47:04;14.90;98.30
69533;DHT22;56729;52.036;5.332;2022-09-09T00:48:10;14.80;98.30
69533;DHT22;56729;52.036;5.332;2022-09-09T00:50:53;14.80;98.40
69533;DHT22;56729;52.036;5.332;2022-09-09T00:56:20;14.70;98.70
69533;DHT22;56729;52.036;5.332;2022-09-09T00:57:27;14.70;98.70
69533;DHT22;56729;52.036;5.332;2022-09-09T00:58:29;14.70;98.80
69533;DHT22;56729;52.036;5.332;2022-09-09T01:00:16;14.70;98.70
69533;DHT22;56729;52.036;5.332;2022-09-09T01:01:21;14.70;98.50
69533;DHT22;56729;52.036;5.332;2022-09-09T01:03:49;14.70;98.70
69533;DHT22;56729;52.036;5.332;2022-09-09T01:05:01;14.70;98.70
69533;DHT22;56729;52.036;5.332;2022-09-09T01:06:16;14.70;98.70
69533;DHT22;56729;52.036;5.332;2022-09-09T01:07:21;14.70;98.70
69533;DHT22;56729;52.036;5.332;2022-09-09T01:10:48;14.70;98.50
69533;DHT22;56729;52.036;5.332;2022-09-09T01:12:14;14.60;98.70
69533;DHT22;56729;52.036;5.332;2022-09-09T01:13:26;14.70;98.90
69533;DHT22;56729;52.036;5.332;2022-09-09T01:15:39;14.70;98.90
69533;DHT22;56729;52.036;5.332;2022-09-09T01:16:43;14.70;98.90
69533;DHT22;56729;52.036;5.332;2022-09-09T01:18:53;14.70;98.80
69533;DHT22;56729;52.036;5.332;2022-09-09T01:20:04;14.70;98.70
69533;DHT22;56729;52.036;5.332;2022-09-09T01:21:41;14.70;98.70
69533;DHT22;56729;52.036;5.332;2022-09-09T01:24:21;14.60;98.70
69533;DHT22;56729;52.036;5.332;2022-09-09T01:27:14;14.60;98.50
69533;DHT22;56729;52.036;5.332;2022-09-09T01:28:20;14.60;98.60
69533;DHT22;56729;52.036;5.332;2022-09-09T01:29:25;14.60;98.90
69533;DHT22;56729;52.036;5.332;2022-09-09T01:30:33;14.50;98.50
69533;DHT22;56729;52.036;5.332;2022-09-09T01:31:38;14.50;98.50
69533;DHT22;56729;52.036;5.332;2022-09-09T01:32:48;14.50;98.50
69533;DHT22;56729;52.036;5.332;2022-09-09T01:33:51;14.50;98.50
69533;DHT22;56729;52.036;5.332;2022-09-09T01:34:54;14.50;98.50
69533;DHT22;56729;52.036;5.332;2022-09-09T01:36:17;14.50;98.40
69533;DHT22;56729;52.036;5.332;2022-09-09T01:37:24;14.50;98.30
69533;DHT22;56729;52.036;5.332;2022-09-09T01:38:28;14.40;98.50
69533;DHT22;56729;52.036;5.332;2022-09-09T01:39:30;14.40;98.60
69533;DHT22;56729;52.036;5.332;2022-09-09T01:40:40;14.50;98.70
69533;DHT22;56729;52.036;5.332;2022-09-09T01:41:43;14.40;98.70
69533;DHT22;56729;52.036;5.332;2022-09-09T01:42:47;14.40;98.60
69533;DHT22;56729;52.036;5.332;2022-09-09T01:43:50;14.40;98.60
69533;DHT22;56729;52.036;5.332;2022-09-09T01:44:53;14.40;98.60
69533;DHT22;56729;52.036;5.332;2022-09-09T01:45:58;14.50;98.60
69533;DHT22;56729;52.036;5.332;2022-09-09T01:47:01;14.40;98.60
69533;DHT22;56729;52.036;5.332;2022-09-09T01:48:03;14.40;98.50
69533;DHT22;56729;52.036;5.332;2022-09-09T01:49:22;14.40;98.50
69533;DHT22;56729;52.036;5.332;2022-09-09T01:50:24;14.40;98.60
69533;DHT22;56729;52.036;5.332;2022-09-09T01:51:26;14.40;98.50
69533;DHT22;56729;52.036;5.332;2022-09-09T01:52:29;14.40;98.50
69533;DHT22;56729;52.036;5.332;2022-09-09T01:53:32;14.40;98.60
69533;DHT22;56729;52.036;5.332;2022-09-09T01:54:34;14.40;98.70
69533;DHT22;56729;52.036;5.332;2022-09-09T01:57:26;14.40;98.70
69533;DHT22;56729;52.036;5.332;2022-09-09T01:58:44;14.40;98.80
69533;DHT22;56729;52.036;5.332;2022-09-09T02:00:06;14.40;98.60
69533;DHT22;56729;52.036;5.332;2022-09-09T02:01:30;14.40;98.40
69533;DHT22;56729;52.036;5.332;2022-09-09T02:04:45;14.40;98.50
69533;DHT22;56729;52.036;5.332;2022-09-09T02:06:20;14.30;98.30
69533;DHT22;56729;52.036;5.332;2022-09-09T02:07:41;14.30;98.20
69533;DHT22;56729;52.036;5.332;2022-09-09T02:08:57;14.30;98.20
69533;DHT22;56729;52.036;5.332;2022-09-09T02:10:28;14.20;98.40
69533;DHT22;56729;52.036;5.332;2022-09-09T02:11:38;14.20;98.30
69533;DHT22;56729;52.036;5.332;2022-09-09T02:13:09;14.10;98.30
69533;DHT22;56729;52.036;5.332;2022-09-09T02:14:18;14.10;98.40
69533;DHT22;56729;52.036;5.332;2022-09-09T02:15:30;14.10;99.00
69533;DHT22;56729;52.036;5.332;2022-09-09T02:16:39;14.10;98.70
69533;DHT22;56729;52.036;5.332;2022-09-09T02:17:42;14.10;98.70
69533;DHT22;56729;52.036;5.332;2022-09-09T02:18:56;14.10;98.60
69533;DHT22;56729;52.036;5.332;2022-09-09T02:20:14;14.10;98.70
69533;DHT22;56729;52.036;5.332;2022-09-09T02:21:21;14.10;98.70
69533;DHT22;56729;52.036;5.332;2022-09-09T02:22:24;14.10;99.20
69533;DHT22;56729;52.036;5.332;2022-09-09T02:23:30;14.10;98.80
69533;DHT22;56729;52.036;5.332;2022-09-09T02:24:37;14.20;98.70
69533;DHT22;56729;52.036;5.332;2022-09-09T02:25:51;14.10;98.60
69533;DHT22;56729;52.036;5.332;2022-09-09T02:26:58;14.10;98.70
69533;DHT22;56729;52.036;5.332;2022-09-09T02:28:06;14.10;98.70
69533;DHT22;56729;52.036;5.332;2022-09-09T02:29:14;14.10;98.70
69533;DHT22;56729;52.036;5.332;2022-09-09T02:30:17;14.20;98.80
69533;DHT22;56729;52.036;5.332;2022-09-09T02:31:25;14.20;98.80
69533;DHT22;56729;52.036;5.332;2022-09-09T02:32:35;14.20;98.80
69533;DHT22;56729;52.036;5.332;2022-09-09T02:33:44;14.20;98.70
69533;DHT22;56729;52.036;5.332;2022-09-09T02:34:56;14.20;98.70
69533;DHT22;56729;52.036;5.332;2022-09-09T02:36:01;14.20;98.60
69533;DHT22;56729;52.036;5.332;2022-09-09T02:37:07;14.20;98.70
69533;DHT22;56729;52.036;5.332;2022-09-09T02:38:13;14.20;98.80
69533;DHT22;56729;52.036;5.332;2022-09-09T02:39:26;14.20;98.90
69533;DHT22;56729;52.036;5.332;2022-09-09T02:40:27;14.20;98.90
69533;DHT22;56729;52.036;5.332;2022-09-09T02:41:36;14.20;98.80
69533;DHT22;56729;52.036;5.332;2022-09-09T02:42:44;14.20;98.90
69533;DHT22;56729;52.036;5.332;2022-09-09T02:43:46;14.20;98.70
69533;DHT22;56729;52.036;5.332;2022-09-09T02:44:49;14.30;98.70
69533;DHT22;56729;52.036;5.332;2022-09-09T02:48:40;14.20;98.50
69533;DHT22;56729;52.036;5.332;2022-09-09T02:51:02;14.20;98.80
69533;DHT22;56729;52.036;5.332;2022-09-09T02:52:14;14.20;98.70
69533;DHT22;56729;52.036;5.332;2022-09-09T02:53:31;14.20;98.70
69533;DHT22;56729;52.036;5.332;2022-09-09T02:54:38;14.20;98.70
69533;DHT22;56729;52.036;5.332;2022-09-09T02:56:04;14.20;98.70
69533;DHT22;56729;52.036;5.332;2022-09-09T02:57:23;14.20;98.70
69533;DHT22;56729;52.036;5.332;2022-09-09T02:58:26;14.20;98.90
69533;DHT22;56729;52.036;5.332;2022-09-09T02:59:36;14.20;98.70
69533;DHT22;56729;52.036;5.332;2022-09-09T03:00:39;14.30;98.70
69533;DHT22;56729;52.036;5.332;2022-09-09T03:01:42;14.30;98.70
69533;DHT22;56729;52.036;5.332;2022-09-09T03:02:45;14.30;98.60
69533;DHT22;56729;52.036;5.332;2022-09-09T03:03:47;14.30;98.60
69533;DHT22;56729;52.036;5.332;2022-09-09T03:04:51;14.30;98.60
69533;DHT22;56729;52.036;5.332;2022-09-09T03:05:54;14.30;98.40
69533;DHT22;56729;52.036;5.332;2022-09-09T03:06:56;14.30;98.30
69533;DHT22;56729;52.036;5.332;2022-09-09T03:07:59;14.30;98.20
69533;DHT22;56729;52.036;5.332;2022-09-09T03:09:01;14.20;98.10
69533;DHT22;56729;52.036;5.332;2022-09-09T03:10:04;14.20;98.20
69533;DHT22;56729;52.036;5.332;2022-09-09T03:11:07;14.20;98.30
69533;DHT22;56729;52.036;5.332;2022-09-09T03:12:12;14.20;98.40
69533;DHT22;56729;52.036;5.332;2022-09-09T03:13:14;14.20;98.40
69533;DHT22;56729;52.036;5.332;2022-09-09T03:14:17;14.20;98.60
69533;DHT22;56729;52.036;5.332;2022-09-09T03:15:23;14.20;98.50
69533;DHT22;56729;52.036;5.332;2022-09-09T03:16:25;14.30;98.50
69533;DHT22;56729;52.036;5.332;2022-09-09T03:17:28;14.20;98.40
69533;DHT22;56729;52.036;5.332;2022-09-09T03:18:31;14.20;98.30
69533;DHT22;56729;52.036;5.332;2022-09-09T03:19:33;14.20;98.30
69533;DHT22;56729;52.036;5.332;2022-09-09T03:20:37;14.20;98.30
69533;DHT22;56729;52.036;5.332;2022-09-09T03:21:39;14.20;98.40
69533;DHT22;56729;52.036;5.332;2022-09-09T03:22:41;14.20;98.50
69533;DHT22;56729;52.036;5.332;2022-09-09T03:23:42;14.20;98.60
69533;DHT22;56729;52.036;5.332;2022-09-09T03:24:45;14.20;98.60
69533;DHT22;56729;52.036;5.332;2022-09-09T03:25:51;14.20;98.50
69533;DHT22;56729;52.036;5.332;2022-09-09T03:27:00;14.20;98.50
69533;DHT22;56729;52.036;5.332;2022-09-09T03:28:02;14.20;98.40
69533;DHT22;56729;52.036;5.332;2022-09-09T03:29:04;14.20;98.40
69533;DHT22;56729;52.036;5.332;2022-09-09T03:30:08;14.20;98.10
69533;DHT22;56729;52.036;5.332;2022-09-09T03:31:10;14.20;98.00
69533;DHT22;56729;52.036;5.332;2022-09-09T03:32:15;14.20;98.40
69533;DHT22;56729;52.036;5.332;2022-09-09T03:33:18;14.20;98.00
69533;DHT22;56729;52.036;5.332;2022-09-09T03:34:21;14.10;98.00
69533;DHT22;56729;52.036;5.332;2022-09-09T03:35:23;14.10;98.20
69533;DHT22;56729;52.036;5.332;2022-09-09T03:36:26;14.10;98.30
69533;DHT22;56729;52.036;5.332;2022-09-09T03:37:28;14.20;98.40
69533;DHT22;56729;52.036;5.332;2022-09-09T03:38:30;14.10;98.30
69533;DHT22;56729;52.036;5.332;2022-09-09T03:39:33;14.10;98.20
69533;DHT22;56729;52.036;5.332;2022-09-09T03:40:35;14.10;98.20
69533;DHT22;56729;52.036;5.332;2022-09-09T03:41:37;14.20;98.30
69533;DHT22;56729;52.036;5.332;2022-09-09T03:42:40;14.10;98.30
69533;DHT22;56729;52.036;5.332;2022-09-09T03:43:42;14.10;98.30
69533;DHT22;56729;52.036;5.332;2022-09-09T03:44:45;14.10;98.20
69533;DHT22;56729;52.036;5.332;2022-09-09T03:45:54;14.20;98.20
69533;DHT22;56729;52.036;5.332;2022-09-09T03:47:00;14.10;98.20
69533;DHT22;56729;52.036;5.332;2022-09-09T03:48:02;14.10;98.20
69533;DHT22;56729;52.036;5.332;2022-09-09T03:49:05;14.10;98.20
69533;DHT22;56729;52.036;5.332;2022-09-09T03:50:08;14.10;98.20
69533;DHT22;56729;52.036;5.332;2022-09-09T03:51:16;14.10;98.20
69533;DHT22;56729;52.036;5.332;2022-09-09T03:52:18;14.10;98.10
69533;DHT22;56729;52.036;5.332;2022-09-09T03:53:25;14.10;98.20
69533;DHT22;56729;52.036;5.332;2022-09-09T03:54:27;14.10;98.20
69533;DHT22;56729;52.036;5.332;2022-09-09T03:55:30;14.00;98.20
69533;DHT22;56729;52.036;5.332;2022-09-09T03:56:32;14.00;98.40
69533;DHT22;56729;52.036;5.332;2022-09-09T03:57:35;14.10;98.50
69533;DHT22;56729;52.036;5.332;2022-09-09T03:58:41;14.10;98.50
69533;DHT22;56729;52.036;5.332;2022-09-09T03:59:45;14.10;98.60
69533;DHT22;56729;52.036;5.332;2022-09-09T04:01:07;14.10;98.50
69533;DHT22;56729;52.036;5.332;2022-09-09T04:02:13;14.10;98.30
69533;DHT22;56729;52.036;5.332;2022-09-09T04:03:15;14.00;98.20
69533;DHT22;56729;52.036;5.332;2022-09-09T04:04:17;14.00;98.30
69533;DHT22;56729;52.036;5.332;2022-09-09T04:05:19;14.00;98.10
69533;DHT22;56729;52.036;5.332;2022-09-09T04:06:22;14.00;98.10
69533;DHT22;56729;52.036;5.332;2022-09-09T04:07:25;14.00;98.20
69533;DHT22;56729;52.036;5.332;2022-09-09T04:08:30;14.00;98.20
69533;DHT22;56729;52.036;5.332;2022-09-09T04:09:35;14.00;98.30
69533;DHT22;56729;52.036;5.332;2022-09-09T04:10:37;14.00;98.30
69533;DHT22;56729;52.036;5.332;2022-09-09T04:11:39;14.00;98.30
69533;DHT22;56729;52.036;5.332;2022-09-09T04:12:42;14.00;98.50
69533;DHT22;56729;52.036;5.332;2022-09-09T04:13:49;14.00;98.40
69533;DHT22;56729;52.036;5.332;2022-09-09T04:14:52;14.00;98.80
69533;DHT22;56729;52.036;5.332;2022-09-09T04:15:57;14.00;98.30
69533;DHT22;56729;52.036;5.332;2022-09-09T04:16:59;14.00;98.40
69533;DHT22;56729;52.036;5.332;2022-09-09T04:18:01;14.00;98.40
69533;DHT22;56729;52.036;5.332;2022-09-09T04:19:04;14.00;98.40
69533;DHT22;56729;52.036;5.332;2022-09-09T04:20:06;14.00;98.50
69533;DHT22;56729;52.036;5.332;2022-09-09T04:21:12;14.00;98.50
69533;DHT22;56729;52.036;5.332;2022-09-09T04:22:15;14.10;98.50
69533;DHT22;56729;52.036;5.332;2022-09-09T04:23:18;14.00;98.90
69533;DHT22;56729;52.036;5.332;2022-09-09T04:24:23;14.00;98.50
69533;DHT22;56729;52.036;5.332;2022-09-09T04:25:26;14.00;98.50
69533;DHT22;56729;52.036;5.332;2022-09-09T04:26:28;14.00;98.40
69533;DHT22;56729;52.036;5.332;2022-09-09T04:27:30;14.00;98.50
69533;DHT22;56729;52.036;5.332;2022-09-09T04:28:33;14.00;98.50
69533;DHT22;56729;52.036;5.332;2022-09-09T04:29:36;14.00;98.60
69533;DHT22;56729;52.036;5.332;2022-09-09T04:30:38;14.00;98.60
69533;DHT22;56729;52.036;5.332;2022-09-09T04:31:41;14.10;98.70
69533;DHT22;56729;52.036;5.332;2022-09-09T04:32:44;14.10;98.80
69533;DHT22;56729;52.036;5.332;2022-09-09T04:33:46;14.10;98.80
69533;DHT22;56729;52.036;5.332;2022-09-09T04:34:48;14.10;98.70
69533;DHT22;56729;52.036;5.332;2022-09-09T04:35:50;14.10;98.70
69533;DHT22;56729;52.036;5.332;2022-09-09T04:36:57;14.10;98.60
69533;DHT22;56729;52.036;5.332;2022-09-09T04:37:59;14.10;98.50
69533;DHT22;56729;52.036;5.332;2022-09-09T04:39:02;14.10;98.60
69533;DHT22;56729;52.036;5.332;2022-09-09T04:40:05;14.10;98.60
69533;DHT22;56729;52.036;5.332;2022-09-09T04:41:07;14.10;98.50
69533;DHT22;56729;52.036;5.332;2022-09-09T04:42:11;14.10;98.60
69533;DHT22;56729;52.036;5.332;2022-09-09T04:43:13;14.10;98.60
69533;DHT22;56729;52.036;5.332;2022-09-09T04:44:18;14.10;98.60
69533;DHT22;56729;52.036;5.332;2022-09-09T04:45:21;14.10;98.60
69533;DHT22;56729;52.036;5.332;2022-09-09T04:46:23;14.10;98.60
69533;DHT22;56729;52.036;5.332;2022-09-09T04:47:25;14.10;98.60
69533;DHT22;56729;52.036;5.332;2022-09-09T04:48:27;14.10;98.70
69533;DHT22;56729;52.036;5.332;2022-09-09T04:49:30;14.10;98.70
69533;DHT22;56729;52.036;5.332;2022-09-09T04:50:33;14.10;98.70
69533;DHT22;56729;52.036;5.332;2022-09-09T04:51:35;14.10;98.50
69533;DHT22;56729;52.036;5.332;2022-09-09T04:52:38;14.10;98.40
69533;DHT22;56729;52.036;5.332;2022-09-09T04:53:40;14.10;98.40
69533;DHT22;56729;52.036;5.332;2022-09-09T04:54:42;14.10;98.40
69533;DHT22;56729;52.036;5.332;2022-09-09T04:55:44;14.00;98.40
69533;DHT22;56729;52.036;5.332;2022-09-09T04:56:47;14.00;98.50
69533;DHT22;56729;52.036;5.332;2022-09-09T04:57:49;14.00;98.40
69533;DHT22;56729;52.036;5.332;2022-09-09T04:58:50;14.00;98.40
69533;DHT22;56729;52.036;5.332;2022-09-09T04:59:55;14.00;98.50
69533;DHT22;56729;52.036;5.332;2022-09-09T05:01:05;14.00;98.60
69533;DHT22;56729;52.036;5.332;2022-09-09T05:02:07;14.00;98.50
69533;DHT22;56729;52.036;5.332;2022-09-09T05:03:09;14.00;98.50
69533;DHT22;56729;52.036;5.332;2022-09-09T05:04:11;14.00;98.50
69533;DHT22;56729;52.036;5.332;2022-09-09T05:05:13;14.00;98.60
69533;DHT22;56729;52.036;5.332;2022-09-09T05:06:18;14.00;98.70
69533;DHT22;56729;52.036;5.332;2022-09-09T05:07:23;14.00;98.60
69533;DHT22;56729;52.036;5.332;2022-09-09T05:08:25;14.00;98.60
69533;DHT22;56729;52.036;5.332;2022-09-09T05:09:28;14.00;98.70
69533;DHT22;56729;52.036;5.332;2022-09-09T05:10:31;14.00;98.70
69533;DHT22;56729;52.036;5.332;2022-09-09T05:11:34;14.00;98.70
69533;DHT22;56729;52.036;5.332;2022-09-09T05:12:52;14.00;98.60
69533;DHT22;56729;52.036;5.332;2022-09-09T05:13:55;14.00;98.60
69533;DHT22;56729;52.036;5.332;2022-09-09T05:14:58;14.00;98.60
69533;DHT22;56729;52.036;5.332;2022-09-09T05:16:00;14.00;98.60
69533;DHT22;56729;52.036;5.332;2022-09-09T05:17:03;14.00;98.60
69533;DHT22;56729;52.036;5.332;2022-09-09T05:18:05;13.90;98.60
69533;DHT22;56729;52.036;5.332;2022-09-09T05:19:07;14.00;98.70
69533;DHT22;56729;52.036;5.332;2022-09-09T05:20:21;13.90;98.70
69533;DHT22;56729;52.036;5.332;2022-09-09T05:21:24;13.90;98.60
69533;DHT22;56729;52.036;5.332;2022-09-09T05:22:29;13.90;98.60
69533;DHT22;56729;52.036;5.332;2022-09-09T05:23:33;14.00;98.70
69533;DHT22;56729;52.036;5.332;2022-09-09T05:24:35;13.90;98.70
69533;DHT22;56729;52.036;5.332;2022-09-09T05:25:38;13.90;98.80
69533;DHT22;56729;52.036;5.332;2022-09-09T05:26:41;14.00;98.80
69533;DHT22;56729;52.036;5.332;2022-09-09T05:27:44;13.90;99.20
69533;DHT22;56729;52.036;5.332;2022-09-09T05:28:46;14.00;98.70
69533;DHT22;56729;52.036;5.332;2022-09-09T05:29:49;14.00;98.80
69533;DHT22;56729;52.036;5.332;2022-09-09T05:31:59;14.00;98.70
69533;DHT22;56729;52.036;5.332;2022-09-09T05:33:01;14.00;98.70
69533;DHT22;56729;52.036;5.332;2022-09-09T05:34:03;14.00;98.70
69533;DHT22;56729;52.036;5.332;2022-09-09T05:35:05;14.00;98.80
69533;DHT22;56729;52.036;5.332;2022-09-09T05:36:18;14.00;98.90
69533;DHT22;56729;52.036;5.332;2022-09-09T05:37:23;14.00;98.90
69533;DHT22;56729;52.036;5.332;2022-09-09T05:38:25;14.00;99.00
69533;DHT22;56729;52.036;5.332;2022-09-09T05:39:30;14.00;98.80
69533;DHT22;56729;52.036;5.332;2022-09-09T05:40:32;14.00;98.90
69533;DHT22;56729;52.036;5.332;2022-09-09T05:41:34;14.00;98.90
69533;DHT22;56729;52.036;5.332;2022-09-09T05:42:38;14.00;98.90
69533;DHT22;56729;52.036;5.332;2022-09-09T05:43:41;14.00;98.90
69533;DHT22;56729;52.036;5.332;2022-09-09T05:44:47;14.00;98.90
69533;DHT22;56729;52.036;5.332;2022-09-09T05:45:59;14.00;99.00
69533;DHT22;56729;52.036;5.332;2022-09-09T05:47:03;14.10;98.90
69533;DHT22;56729;52.036;5.332;2022-09-09T05:48:05;14.10;98.90
69533;DHT22;56729;52.036;5.332;2022-09-09T05:49:09;14.10;99.00
69533;DHT22;56729;52.036;5.332;2022-09-09T05:50:12;14.10;99.10
69533;DHT22;56729;52.036;5.332;2022-09-09T05:51:21;14.10;99.20
69533;DHT22;56729;52.036;5.332;2022-09-09T05:52:24;14.10;99.20
69533;DHT22;56729;52.036;5.332;2022-09-09T05:53:29;14.10;99.20
69533;DHT22;56729;52.036;5.332;2022-09-09T05:54:36;14.20;99.30
69533;DHT22;56729;52.036;5.332;2022-09-09T05:55:39;14.20;99.40
69533;DHT22;56729;52.036;5.332;2022-09-09T05:56:41;14.20;99.20
69533;DHT22;56729;52.036;5.332;2022-09-09T05:57:48;14.20;99.20
69533;DHT22;56729;52.036;5.332;2022-09-09T05:58:51;14.30;99.30
69533;DHT22;56729;52.036;5.332;2022-09-09T05:59:55;14.30;99.20
69533;DHT22;56729;52.036;5.332;2022-09-09T06:01:07;14.30;99.10
69533;DHT22;56729;52.036;5.332;2022-09-09T06:02:09;14.30;99.10
69533;DHT22;56729;52.036;5.332;2022-09-09T06:03:12;14.30;99.20
69533;DHT22;56729;52.036;5.332;2022-09-09T06:04:14;14.40;99.20
69533;DHT22;56729;52.036;5.332;2022-09-09T06:05:16;14.40;99.20
69533;DHT22;56729;52.036;5.332;2022-09-09T06:06:20;14.40;99.20
69533;DHT22;56729;52.036;5.332;2022-09-09T06:07:23;14.40;99.30
69533;DHT22;56729;52.036;5.332;2022-09-09T06:08:24;14.40;99.40
69533;DHT22;56729;52.036;5.332;2022-09-09T06:09:26;14.40;99.30
69533;DHT22;56729;52.036;5.332;2022-09-09T06:10:30;14.50;99.40
69533;DHT22;56729;52.036;5.332;2022-09-09T06:11:33;14.50;99.40
69533;DHT22;56729;52.036;5.332;2022-09-09T06:12:37;14.50;99.30
69533;DHT22;56729;52.036;5.332;2022-09-09T06:13:41;14.50;99.80
69533;DHT22;56729;52.036;5.332;2022-09-09T06:14:43;14.50;99.30
69533;DHT22;56729;52.036;5.332;2022-09-09T06:15:51;14.60;99.30
69533;DHT22;56729;52.036;5.332;2022-09-09T06:16:53;14.60;99.40
69533;DHT22;56729;52.036;5.332;2022-09-09T06:17:57;14.60;99.40
69533;DHT22;56729;52.036;5.332;2022-09-09T06:19:00;14.60;99.40
69533;DHT22;56729;52.036;5.332;2022-09-09T06:20:05;14.60;99.50
69533;DHT22;56729;52.036;5.332;2022-09-09T06:21:21;14.60;99.60
69533;DHT22;56729;52.036;5.332;2022-09-09T06:22:24;14.70;99.60
69533;DHT22;56729;52.036;5.332;2022-09-09T06:23:27;14.70;99.70
69533;DHT22;56729;52.036;5.332;2022-09-09T06:24:30;14.80;99.80
69533;DHT22;56729;52.036;5.332;2022-09-09T06:25:33;14.80;99.80
69533;DHT22;56729;52.036;5.332;2022-09-09T06:26:38;14.80;99.70
69533;DHT22;56729;52.036;5.332;2022-09-09T06:27:48;14.90;99.80
69533;DHT22;56729;52.036;5.332;2022-09-09T06:28:53;14.90;99.90
69533;DHT22;56729;52.036;5.332;2022-09-09T06:29:55;14.90;99.90
69533;DHT22;56729;52.036;5.332;2022-09-09T06:30:59;15.00;99.90
69533;DHT22;56729;52.036;5.332;2022-09-09T06:32:03;15.00;99.90
69533;DHT22;56729;52.036;5.332;2022-09-09T06:33:05;15.00;99.90
69533;DHT22;56729;52.036;5.332;2022-09-09T06:34:08;15.10;99.90
69533;DHT22;56729;52.036;5.332;2022-09-09T06:35:14;15.10;99.90
69533;DHT22;56729;52.036;5.332;2022-09-09T06:36:22;15.20;99.90
69533;DHT22;56729;52.036;5.332;2022-09-09T06:37:24;15.20;99.90
69533;DHT22;56729;52.036;5.332;2022-09-09T06:38:28;15.30;99.90
69533;DHT22;56729;52.036;5.332;2022-09-09T06:39:30;15.30;99.90
69533;DHT22;56729;52.036;5.332;2022-09-09T06:40:32;15.30;99.90
69533;DHT22;56729;52.036;5.332;2022-09-09T06:41:35;15.40;99.80
69533;DHT22;56729;52.036;5.332;2022-09-09T06:42:37;15.40;99.70
69533;DHT22;56729;52.036;5.332;2022-09-09T06:43:55;15.40;99.70
69533;DHT22;56729;52.036;5.332;2022-09-09T06:45:05;15.40;99.70
69533;DHT22;56729;52.036;5.332;2022-09-09T06:46:21;15.50;99.70
69533;DHT22;56729;52.036;5.332;2022-09-09T06:47:24;15.50;99.70
69533;DHT22;56729;52.036;5.332;2022-09-09T06:48:27;15.50;99.60
69533;DHT22;56729;52.036;5.332;2022-09-09T06:49:32;15.50;99.50
69533;DHT22;56729;52.036;5.332;2022-09-09T06:50:35;15.50;99.40
69533;DHT22;56729;52.036;5.332;2022-09-09T06:51:38;15.50;99.30
69533;DHT22;56729;52.036;5.332;2022-09-09T06:52:46;15.50;99.30
69533;DHT22;56729;52.036;5.332;2022-09-09T06:53:57;15.50;99.30
69533;DHT22;56729;52.036;5.332;2022-09-09T06:55:00;15.50;99.30
69533;DHT22;56729;52.036;5.332;2022-09-09T06:56:17;15.50;99.40
69533;DHT22;56729;52.036;5.332;2022-09-09T06:57:20;15.50;99.30
69533;DHT22;56729;52.036;5.332;2022-09-09T06:58:44;15.50;99.40
69533;DHT22;56729;52.036;5.332;2022-09-09T06:59:52;15.50;99.30
69533;DHT22;56729;52.036;5.332;2022-09-09T07:01:05;15.50;99.30
69533;DHT22;56729;52.036;5.332;2022-09-09T07:02:08;15.60;99.30
69533;DHT22;56729;52.036;5.332;2022-09-09T07:03:10;15.60;99.90
69533;DHT22;56729;52.036;5.332;2022-09-09T07:04:13;15.60;99.60
69533;DHT22;56729;52.036;5.332;2022-09-09T07:05:18;15.60;99.60
69533;DHT22;56729;52.036;5.332;2022-09-09T07:06:23;15.60;99.70
69533;DHT22;56729;52.036;5.332;2022-09-09T07:07:26;15.70;99.70
69533;DHT22;56729;52.036;5.332;2022-09-09T07:08:28;15.70;99.60
69533;DHT22;56729;52.036;5.332;2022-09-09T07:09:30;15.80;99.70
69533;DHT22;56729;52.036;5.332;2022-09-09T07:10:33;15.80;99.70
69533;DHT22;56729;52.036;5.332;2022-09-09T07:11:44;15.80;99.60
69533;DHT22;56729;52.036;5.332;2022-09-09T07:12:51;15.90;99.60
69533;DHT22;56729;52.036;5.332;2022-09-09T07:13:58;15.90;99.60
69533;DHT22;56729;52.036;5.332;2022-09-09T07:15:00;15.90;99.50
69533;DHT22;56729;52.036;5.332;2022-09-09T07:16:09;15.90;99.20
69533;DHT22;56729;52.036;5.332;2022-09-09T07:17:11;15.90;99.20
69533;DHT22;56729;52.036;5.332;2022-09-09T07:18:14;15.90;99.20
69533;DHT22;56729;52.036;5.332;2022-09-09T07:19:16;15.90;99.10
69533;DHT22;56729;52.036;5.332;2022-09-09T07:20:20;15.90;99.00
69533;DHT22;56729;52.036;5.332;2022-09-09T07:21:25;15.90;99.00
69533;DHT22;56729;52.036;5.332;2022-09-09T07:22:28;15.90;99.10
69533;DHT22;56729;52.036;5.332;2022-09-09T07:23:30;15.90;99.20
69533;DHT22;56729;52.036;5.332;2022-09-09T07:24:36;15.90;99.20
69533;DHT22;56729;52.036;5.332;2022-09-09T07:25:44;15.90;99.20
69533;DHT22;56729;52.036;5.332;2022-09-09T07:26:47;16.00;99.30
69533;DHT22;56729;52.036;5.332;2022-09-09T07:27:50;16.00;99.30
69533;DHT22;56729;52.036;5.332;2022-09-09T07:28:54;16.00;99.10
69533;DHT22;56729;52.036;5.332;2022-09-09T07:29:58;16.00;99.60
69533;DHT22;56729;52.036;5.332;2022-09-09T07:31:02;16.10;99.30
69533;DHT22;56729;52.036;5.332;2022-09-09T07:32:05;16.10;99.20
69533;DHT22;56729;52.036;5.332;2022-09-09T07:33:10;16.20;99.20